Language: 


Des rapports , des résumés tant et plus, au choix de chacun....


Données statistiques de la station
Quotidien Rapport Février 13, 2017 Unités:  Anglais    Métrique   les deux
« Précédent Jour
Suivant Jour »
Quotidien Hebdomadaire Mensuel Annuel Actuel
  Haut: Bas: Moyen:
Température: 51.3 °F 34.9 °F 41.2 °F
Pt de rosée: 38.5 °F 31.1 °F 35.1 °F
Humidité: 96 % 55 % 80 %
Vitesse du vent: 14.8 mph 0.9 mph 7 mph
Rafales: 17.4 mph - -
Vent:- - East
Pression: 30.2 in 30.1 in -
Précipitation: 0 in    
Historical Graphs
 
 
Données statistiques pour Février 13, 2017
Heure Température Point de rosée Pression Vent Vitesse du vent Refales Humidité Pluie (taux horaire)
00:00 39.4 °F 38.5 °F 30.2 in ENE 5.6 mph 8.7 mph 96 % 0 in
00:05 39.2 °F 38.1 °F 30.2 in ENE 5.8 mph 8.7 mph 96 % 0 in
00:10 39.2 °F 38.1 °F 30.2 in East 7.8 mph 8.1 mph 96 % 0 in
00:15 39.2 °F 38.1 °F 30.2 in NE 5.6 mph 8.1 mph 96 % 0 in
00:20 39.2 °F 38.1 °F 30.2 in ENE 6.5 mph 7.8 mph 96 % 0 in
00:25 39 °F 37.9 °F 30.2 in ENE 5.8 mph 7.6 mph 96 % 0 in
00:30 39 °F 37.8 °F 30.2 in NE 5.4 mph 8.7 mph 95 % 0 in
00:35 39 °F 37.8 °F 30.2 in ENE 5.6 mph 8.7 mph 95 % 0 in
00:40 38.8 °F 37.8 °F 30.2 in ENE 5.6 mph 7.4 mph 96 % 0 in
00:45 38.7 °F 37.8 °F 30.2 in ENE 5.8 mph 7.4 mph 96 % 0 in
00:50 38.7 °F 37.8 °F 30.2 in East 5.8 mph 7.2 mph 96 % 0 in
00:55 38.5 °F 37.6 °F 30.2 in ENE 4.7 mph 8.1 mph 96 % 0 in
01:00 38.5 °F 37.6 °F 30.2 in NE 5.6 mph 8.1 mph 96 % 0 in
01:05 38.5 °F 37.2 °F 30.2 in ENE 3.8 mph 7.6 mph 95 % 0 in
01:10 38.5 °F 37 °F 30.2 in ENE 3.6 mph 6.7 mph 95 % 0 in
01:15 38.5 °F 37 °F 30.2 in ENE 4.3 mph 6.7 mph 95 % 0 in
01:20 38.1 °F 36.9 °F 30.2 in ENE 4.9 mph 6.3 mph 95 % 0 in
01:25 37.9 °F 36.7 °F 30.2 in ENE 4.5 mph 6.5 mph 95 % 0 in
01:31 37.9 °F 36.7 °F 30.2 in ENE 5.4 mph 7.2 mph 95 % 0 in
01:36 37.9 °F 37 °F 30.2 in ENE 5.8 mph 8.5 mph 96 % 0 in
01:41 37.9 °F 37 °F 30.2 in ENE 5.4 mph 8.5 mph 96 % 0 in
01:46 37.9 °F 37 °F 30.2 in ENE 6.3 mph 7.4 mph 96 % 0 in
01:51 37.8 °F 36.5 °F 30.2 in East 5.6 mph 7.4 mph 95 % 0 in
01:56 37.8 °F 36.5 °F 30.2 in ENE 4 mph 6.7 mph 95 % 0 in
02:02 37.6 °F 36.3 °F 30.2 in ENE 4.9 mph 6.5 mph 95 % 0 in
02:07 37.8 °F 36.9 °F 30.2 in ENE 5.4 mph 6.5 mph 96 % 0 in
02:12 37.8 °F 36.9 °F 30.2 in NE 5.6 mph 6.5 mph 96 % 0 in
02:17 37.6 °F 36.3 °F 30.2 in ENE 5.6 mph 7.4 mph 95 % 0 in
02:22 37.6 °F 36.3 °F 30.2 in ENE 4.3 mph 7.4 mph 95 % 0 in
02:27 37.6 °F 36.3 °F 30.2 in ENE 8.1 mph 8.1 mph 95 % 0 in
02:32 37.6 °F 36.3 °F 30.2 in NNE 6 mph 8.1 mph 95 % 0 in
02:37 37.6 °F 36.3 °F 30.2 in East 5.4 mph 8.1 mph 95 % 0 in
02:42 37.8 °F 36.5 °F 30.2 in East 7.2 mph 8.5 mph 95 % 0 in
02:47 37.8 °F 36.5 °F 30.2 in East 4.9 mph 8.7 mph 95 % 0 in
02:52 37.8 °F 36.5 °F 30.2 in ENE 3.8 mph 8.7 mph 95 % 0 in
02:57 37.8 °F 36.5 °F 30.2 in East 6.5 mph 10.1 mph 95 % 0 in
03:02 37.6 °F 36.3 °F 30.2 in East 5.8 mph 10.1 mph 95 % 0 in
03:07 37.6 °F 36.3 °F 30.2 in ENE 8.7 mph 8.7 mph 95 % 0 in
03:12 37.6 °F 36 °F 30.2 in ENE 5.8 mph 8.7 mph 94 % 0 in
03:17 37.6 °F 36 °F 30.2 in ENE 7.6 mph 8.7 mph 94 % 0 in
03:22 37.6 °F 36 °F 30.2 in ENE 5.8 mph 9.6 mph 94 % 0 in
03:27 37.6 °F 36 °F 30.2 in ENE 6.3 mph 9.6 mph 94 % 0 in
03:32 37.2 °F 35.8 °F 30.2 in NE 7.6 mph 10.7 mph 94 % 0 in
03:37 37.2 °F 35.8 °F 30.2 in ENE 5.8 mph 10.7 mph 94 % 0 in
03:42 37 °F 35.4 °F 30.2 in ENE 5.4 mph 8.9 mph 94 % 0 in
03:47 36.9 °F 35.4 °F 30.2 in NE 5.4 mph 8.9 mph 94 % 0 in
03:52 36.9 °F 35.4 °F 30.2 in ENE 6.5 mph 10.1 mph 94 % 0 in
03:57 36.9 °F 35.2 °F 30.2 in ENE 6 mph 10.1 mph 94 % 0 in
04:02 36.9 °F 35.2 °F 30.2 in NE 6 mph 9.6 mph 94 % 0 in
04:07 36.9 °F 35.2 °F 30.2 in ENE 6.5 mph 9.6 mph 94 % 0 in
04:12 36.9 °F 35.2 °F 30.2 in ENE 6 mph 10.1 mph 94 % 0 in
04:17 36.9 °F 35.2 °F 30.2 in NE 6 mph 10.1 mph 94 % 0 in
04:22 36.9 °F 35.2 °F 30.2 in East 7.4 mph 8.7 mph 94 % 0 in
04:27 36.9 °F 35.2 °F 30.2 in ENE 3.8 mph 8.7 mph 94 % 0 in
04:32 36.7 °F 35.1 °F 30.2 in East 7.2 mph 8.7 mph 94 % 0 in
04:37 36.7 °F 35.1 °F 30.2 in East 5.6 mph 8.7 mph 94 % 0 in
04:42 36.7 °F 35.1 °F 30.2 in East 6 mph 8.7 mph 94 % 0 in
04:47 36.7 °F 35.1 °F 30.2 in ENE 6 mph 8.1 mph 94 % 0 in
04:52 36.3 °F 34.9 °F 30.2 in ENE 6 mph 8.5 mph 94 % 0 in
04:57 36.3 °F 34.9 °F 30.2 in East 7.6 mph 8.5 mph 94 % 0 in
05:02 36.3 °F 34.9 °F 30.2 in ENE 6.5 mph 8.7 mph 94 % 0 in
05:07 36.3 °F 34.9 °F 30.2 in ENE 7.2 mph 8.7 mph 94 % 0 in
05:12 36.1 °F 34.7 °F 30.2 in East 6.3 mph 8.7 mph 94 % 0 in
05:17 36.1 °F 34.7 °F 30.2 in ENE 6.9 mph 8.7 mph 94 % 0 in
05:23 36.1 °F 34.3 °F 30.2 in East 7.8 mph 8.7 mph 93 % 0 in
05:28 36.1 °F 34.2 °F 30.2 in East 5.6 mph 8.7 mph 93 % 0 in
05:33 36.1 °F 34.2 °F 30.2 in ENE 7.6 mph 8.7 mph 93 % 0 in
05:38 36.1 °F 34.2 °F 30.2 in NE 5.6 mph 8.7 mph 93 % 0 in
05:43 36.1 °F 34.2 °F 30.2 in ENE 7.4 mph 8.5 mph 93 % 0 in
05:48 36.1 °F 34.2 °F 30.2 in NE 6.3 mph 8.5 mph 93 % 0 in
05:53 36.1 °F 34.2 °F 30.2 in East 7.8 mph 9.8 mph 93 % 0 in
05:58 36.1 °F 34.2 °F 30.2 in East 6 mph 9.8 mph 93 % 0 in
06:03 36 °F 34.2 °F 30.2 in East 7.6 mph 9.6 mph 93 % 0 in
06:08 36 °F 34.2 °F 30.2 in ENE 6 mph 8.9 mph 93 % 0 in
06:13 36 °F 34.2 °F 30.2 in NE 7.8 mph 12.5 mph 93 % 0 in
06:18 35.8 °F 34 °F 30.2 in East 5.8 mph 12.5 mph 93 % 0 in
06:23 35.8 °F 34 °F 30.2 in NE 7.8 mph 8.7 mph 93 % 0 in
06:28 35.8 °F 34 °F 30.2 in ENE 6 mph 8.7 mph 93 % 0 in
06:33 35.8 °F 34 °F 30.2 in East 8.1 mph 8.7 mph 93 % 0 in
06:38 35.8 °F 34 °F 30.2 in East 5.8 mph 8.7 mph 93 % 0 in
06:43 35.8 °F 34 °F 30.2 in ENE 6 mph 9.2 mph 93 % 0 in
06:48 35.4 °F 33.6 °F 30.2 in ENE 8.7 mph 9.8 mph 93 % 0 in
06:53 35.4 °F 33.6 °F 30.2 in ENE 8.7 mph 10.3 mph 93 % 0 in
06:58 35.4 °F 33.6 °F 30.2 in East 8.1 mph 10.3 mph 93 % 0 in
07:03 35.4 °F 33.6 °F 30.2 in ENE 4.9 mph 8.7 mph 93 % 0 in
07:08 35.4 °F 33.4 °F 30.2 in East 8.5 mph 9.6 mph 93 % 0 in
07:13 35.4 °F 33.4 °F 30.2 in ENE 6.5 mph 9.6 mph 93 % 0 in
07:18 35.4 °F 33.4 °F 30.2 in ENE 6 mph 10.3 mph 93 % 0 in
07:23 35.4 °F 33.4 °F 30.2 in NE 6.5 mph 10.3 mph 93 % 0 in
07:28 35.4 °F 33.4 °F 30.2 in East 8.7 mph 11 mph 93 % 0 in
07:33 35.2 °F 33.4 °F 30.2 in ENE 7.6 mph 11 mph 93 % 0 in
07:38 35.2 °F 33.4 °F 30.2 in ENE 7.8 mph 10.3 mph 93 % 0 in
07:43 35.2 °F 33.4 °F 30.2 in NE 8.1 mph 10.3 mph 93 % 0 in
07:48 35.1 °F 33.3 °F 30.2 in NE 8.5 mph 10.3 mph 93 % 0 in
07:53 35.1 °F 33.3 °F 30.2 in East 5.4 mph 10.3 mph 93 % 0 in
07:58 35.1 °F 33.3 °F 30.2 in East 4.3 mph 8.5 mph 93 % 0 in
08:03 35.1 °F 33.3 °F 30.2 in East 5.4 mph 8.5 mph 93 % 0 in
08:08 34.9 °F 33.1 °F 30.2 in East 5.4 mph 8.5 mph 93 % 0 in
08:13 34.9 °F 33.1 °F 30.2 in East 6.5 mph 8.1 mph 93 % 0 in
08:18 34.9 °F 33.1 °F 30.2 in East 4.9 mph 7.8 mph 93 % 0 in
08:23 34.9 °F 33.1 °F 30.2 in NE 4.3 mph 7.4 mph 93 % 0 in
08:28 35.1 °F 33.3 °F 30.2 in East 4.9 mph 8.7 mph 93 % 0 in
08:33 35.1 °F 33.3 °F 30.2 in East 7.4 mph 10.1 mph 93 % 0 in
08:38 35.1 °F 33.3 °F 30.2 in ENE 5.6 mph 10.1 mph 93 % 0 in
08:43 35.2 °F 33.4 °F 30.2 in ENE 6 mph 8.7 mph 93 % 0 in
08:48 35.4 °F 33.8 °F 30.2 in NE 8.5 mph 8.9 mph 94 % 0 in
08:53 35.4 °F 33.4 °F 30.2 in ENE 5.4 mph 8.9 mph 93 % 0 in
08:58 35.4 °F 33.6 °F 30.2 in East 6.5 mph 7.8 mph 93 % 0 in
09:03 35.8 °F 34 °F 30.2 in ENE 7.4 mph 8.1 mph 93 % 0 in
09:08 36 °F 34.2 °F 30.2 in ENE 7.4 mph 8.5 mph 93 % 0 in
09:13 36.1 °F 34.2 °F 30.2 in ENE 4.3 mph 8.5 mph 93 % 0 in
09:18 36.3 °F 34.5 °F 30.2 in East 5.6 mph 8.5 mph 93 % 0 in
09:23 36.7 °F 34.5 °F 30.2 in ENE 6.3 mph 8.5 mph 92 % 0 in
09:28 36.9 °F 34.7 °F 30.2 in East 6.3 mph 8.5 mph 92 % 0 in
09:33 36.9 °F 34.5 °F 30.2 in ENE 6 mph 8.5 mph 91 % 0 in
09:38 37 °F 34.5 °F 30.2 in East 6 mph 8.7 mph 90 % 0 in
09:43 37.6 °F 34.5 °F 30.2 in East 6 mph 8.9 mph 89 % 0 in
09:48 37.6 °F 34.5 °F 30.2 in East 8.1 mph 11.2 mph 89 % 0 in
09:53 37.8 °F 34.9 °F 30.2 in East 5.8 mph 11.2 mph 89 % 0 in
09:58 37.9 °F 34.9 °F 30.2 in East 5.4 mph 10.3 mph 88 % 0 in
10:03 38.1 °F 34.9 °F 30.2 in ENE 6.5 mph 10.3 mph 88 % 0 in
10:08 38.5 °F 35.1 °F 30.2 in East 9.2 mph 10.1 mph 88 % 0 in
10:13 38.7 °F 35.2 °F 30.2 in East 5.8 mph 10.5 mph 87 % 0 in
10:18 39 °F 35.4 °F 30.2 in ENE 4.3 mph 10.5 mph 87 % 0 in
10:23 39.4 °F 36 °F 30.2 in ENE 6.3 mph 9.8 mph 87 % 0 in
10:28 39.4 °F 35.6 °F 30.2 in East 5.6 mph 9.8 mph 86 % 0 in
10:33 39.9 °F 36.1 °F 30.2 in East 5.4 mph 9.2 mph 86 % 0 in
10:38 40.5 °F 36.7 °F 30.2 in ENE 5.8 mph 8.5 mph 86 % 0 in
10:43 40.6 °F 36.5 °F 30.2 in ENE 5.8 mph 8.7 mph 85 % 0 in
10:48 41 °F 36.9 °F 30.2 in ENE 8.5 mph 8.7 mph 85 % 0 in
10:53 41.2 °F 36.7 °F 30.2 in NE 7.6 mph 8.5 mph 84 % 0 in
10:58 41.2 °F 36.1 °F 30.2 in East 7.4 mph 10.5 mph 82 % 0 in
11:03 41.4 °F 36 °F 30.2 in East 6.9 mph 10.5 mph 81 % 0 in
11:08 41.7 °F 36.7 °F 30.2 in East 4.9 mph 10.3 mph 82 % 0 in
11:13 41.9 °F 36.5 °F 30.2 in NE 6 mph 8.7 mph 81 % 0 in
11:18 42.3 °F 36.5 °F 30.2 in ESE 8.5 mph 8.7 mph 80 % 0 in
11:24 42.4 °F 36.3 °F 30.2 in ESE 7.8 mph 10.1 mph 79 % 0 in
11:29 42.8 °F 37 °F 30.2 in East 6 mph 10.1 mph 80 % 0 in
11:34 43 °F 36.5 °F 30.2 in East 8.9 mph 9.6 mph 78 % 0 in
11:39 43.3 °F 36.9 °F 30.2 in NE 6.3 mph 10.1 mph 78 % 0 in
11:44 43.5 °F 36.9 °F 30.2 in ESE 11 mph 11 mph 77 % 0 in
11:49 44.1 °F 36.9 °F 30.2 in East 4.9 mph 11 mph 76 % 0 in
11:54 44.4 °F 37.4 °F 30.2 in East 5.4 mph 10.5 mph 76 % 0 in
11:59 45.1 °F 37.9 °F 30.2 in East 3.8 mph 8.5 mph 76 % 0 in
12:04 45.1 °F 37.4 °F 30.2 in East 5.8 mph 10.1 mph 74 % 0 in
12:09 45.7 °F 37.4 °F 30.2 in SE 7.4 mph 11 mph 73 % 0 in
12:14 45.9 °F 36.9 °F 30.2 in East 7.6 mph 12.1 mph 71 % 0 in
12:19 45.9 °F 37 °F 30.2 in East 9.8 mph 12.1 mph 71 % 0 in
12:24 45.9 °F 36.7 °F 30.2 in ESE 10.5 mph 11 mph 70 % 0 in
12:29 46.2 °F 37 °F 30.2 in East 5.8 mph 11 mph 70 % 0 in
12:34 46.6 °F 37.4 °F 30.2 in East 10.5 mph 10.5 mph 70 % 0 in
12:39 46.9 °F 37.2 °F 30.2 in ESE 12.8 mph 12.8 mph 69 % 0 in
12:44 47.3 °F 36.9 °F 30.2 in East 5.6 mph 12.8 mph 67 % 0 in
12:49 47.1 °F 36 °F 30.2 in SSE 10.5 mph 13.2 mph 65 % 0 in
12:54 47.5 °F 36 °F 30.2 in East 7.8 mph 13.2 mph 64 % 0 in
12:59 47.7 °F 36.1 °F 30.2 in ESE 10.5 mph 13.2 mph 64 % 0 in
13:04 47.8 °F 36.3 °F 30.2 in ESE 7.6 mph 13.2 mph 64 % 0 in
13:09 47.8 °F 35.4 °F 30.2 in East 6.3 mph 13.2 mph 62 % 0 in
13:14 48.2 °F 36.7 °F 30.2 in East 5.6 mph 13 mph 64 % 0 in
13:19 48.4 °F 36.9 °F 30.2 in East 9.6 mph 10.7 mph 64 % 0 in
13:24 48.4 °F 35.6 °F 30.2 in East 7.8 mph 12.8 mph 61 % 0 in
13:29 48.6 °F 36.1 °F 30.2 in East 10.3 mph 12.8 mph 62 % 0 in
13:34 48.7 °F 36.3 °F 30.2 in East 8.1 mph 13.2 mph 62 % 0 in
13:39 49.1 °F 36.7 °F 30.2 in East 10.3 mph 13.2 mph 62 % 0 in
13:44 49.3 °F 36.3 °F 30.2 in ESE 13 mph 13.2 mph 61 % 0 in
13:49 49.5 °F 36.7 °F 30.2 in East 10.3 mph 13.2 mph 61 % 0 in
13:54 49.5 °F 35.8 °F 30.2 in East 12.8 mph 13.4 mph 59 % 0 in
13:59 49.6 °F 36.3 °F 30.2 in East 10.7 mph 13.4 mph 60 % 0 in
14:04 49.8 °F 35.6 °F 30.2 in East 10.7 mph 13 mph 58 % 0 in
14:09 50 °F 36.1 °F 30.2 in ESE 8.5 mph 13.2 mph 59 % 0 in
14:14 50.2 °F 36.3 °F 30.2 in East 8.1 mph 13.4 mph 59 % 0 in
14:19 50.4 °F 36.1 °F 30.2 in ENE 8.5 mph 14.8 mph 58 % 0 in
14:24 50.4 °F 36.1 °F 30.2 in East 11.2 mph 14.8 mph 58 % 0 in
14:29 50.4 °F 36.1 °F 30.2 in East 10.3 mph 15.2 mph 58 % 0 in
14:34 50.7 °F 36.3 °F 30.2 in East 12.5 mph 15.2 mph 58 % 0 in
14:39 50.5 °F 35.4 °F 30.2 in East 10.7 mph 13 mph 56 % 0 in
14:44 50.5 °F 35.4 °F 30.2 in East 10.7 mph 13 mph 56 % 0 in
14:49 50.5 °F 34.9 °F 30.2 in East 12.5 mph 12.5 mph 55 % 0 in
14:55 50.7 °F 35.6 °F 30.2 in East 7.2 mph 13.6 mph 56 % 0 in
15:00 50.7 °F 35.6 °F 30.2 in ESE 10.3 mph 13.6 mph 56 % 0 in
15:05 50.9 °F 35.8 °F 30.2 in East 10.3 mph 12.5 mph 56 % 0 in
15:10 50.9 °F 35.8 °F 30.1 in East 11 mph 13.2 mph 56 % 0 in
15:15 51.1 °F 36.3 °F 30.1 in NE 5.4 mph 13.2 mph 57 % 0 in
15:20 51.3 °F 36.5 °F 30.1 in East 6 mph 12.5 mph 57 % 0 in
15:25 51.1 °F 36 °F 30.1 in ESE 8.5 mph 12.5 mph 56 % 0 in
15:30 50.9 °F 35.2 °F 30.1 in East 7.6 mph 13.6 mph 55 % 0 in
15:35 51.1 °F 36 °F 30.1 in East 7.8 mph 13.6 mph 56 % 0 in
15:40 51.1 °F 36 °F 30.2 in ENE 10.3 mph 12.8 mph 56 % 0 in
15:45 51.1 °F 36.3 °F 30.2 in East 6.5 mph 12.8 mph 57 % 0 in
15:50 51.3 °F 36.9 °F 30.2 in ENE 10.1 mph 10.7 mph 58 % 0 in
15:55 50.9 °F 36.7 °F 30.2 in ENE 10.1 mph 12.5 mph 58 % 0 in
16:00 50.9 °F 36.1 °F 30.2 in East 10.5 mph 14.8 mph 57 % 0 in
16:05 50.7 °F 36 °F 30.2 in East 7.8 mph 14.8 mph 57 % 0 in
16:10 50.5 °F 36.3 °F 30.2 in East 10.7 mph 12.1 mph 58 % 0 in
16:15 50.2 °F 36.3 °F 30.2 in ENE 6.5 mph 13 mph 59 % 0 in
16:20 50 °F 36.1 °F 30.2 in East 10.3 mph 13 mph 59 % 0 in
16:25 49.8 °F 36.5 °F 30.2 in NE 5.8 mph 12.3 mph 60 % 0 in
16:30 49.6 °F 36.3 °F 30.2 in NE 7.8 mph 12.8 mph 60 % 0 in
16:35 49.3 °F 36 °F 30.2 in ENE 8.5 mph 12.8 mph 60 % 0 in
16:40 49.1 °F 35.8 °F 30.2 in East 7.6 mph 10.5 mph 60 % 0 in
16:45 48.9 °F 36.1 °F 30.2 in NE 8.9 mph 11 mph 61 % 0 in
16:50 48.7 °F 36.3 °F 30.2 in East 8.5 mph 11 mph 62 % 0 in
16:55 48.4 °F 36 °F 30.1 in East 6.3 mph 10.7 mph 62 % 0 in
17:01 48.2 °F 36.1 °F 30.1 in East 10.5 mph 12.8 mph 63 % 0 in
17:06 48 °F 35.6 °F 30.1 in NE 6.3 mph 12.8 mph 62 % 0 in
17:11 47.8 °F 35.4 °F 30.2 in East 10.7 mph 13.2 mph 62 % 0 in
17:16 47.5 °F 35.1 °F 30.2 in ESE 11 mph 13.2 mph 62 % 0 in
17:21 47.3 °F 35.4 °F 30.2 in ESE 10.7 mph 11.2 mph 63 % 0 in
17:26 47.1 °F 35.6 °F 30.2 in East 9.8 mph 12.5 mph 64 % 0 in
17:31 46.9 °F 35.8 °F 30.2 in East 7.6 mph 12.5 mph 65 % 0 in
17:36 46.6 °F 36 °F 30.2 in East 4.9 mph 12.5 mph 66 % 0 in
17:41 46.6 °F 35.8 °F 30.2 in East 5.8 mph 12.5 mph 66 % 0 in
17:46 46 °F 35.4 °F 30.2 in East 10.3 mph 12.1 mph 66 % 0 in
17:51 45.9 °F 35.4 °F 30.2 in East 10.3 mph 12.3 mph 67 % 0 in
17:56 45.7 °F 35.2 °F 30.2 in NE 7.8 mph 12.8 mph 67 % 0 in
18:01 45.1 °F 35.2 °F 30.2 in ENE 14.8 mph 14.8 mph 68 % 0 in
18:06 45.1 °F 35.1 °F 30.2 in East 7.4 mph 14.8 mph 68 % 0 in
18:11 44.8 °F 34.9 °F 30.2 in NE 11 mph 14.8 mph 68 % 0 in
18:16 44.4 °F 34.5 °F 30.2 in East 10.1 mph 12.1 mph 68 % 0 in
18:21 44.2 °F 34.9 °F 30.2 in East 12.5 mph 12.5 mph 69 % 0 in
18:26 44.1 °F 34.5 °F 30.2 in NE 7.6 mph 12.5 mph 69 % 0 in
18:31 43.9 °F 34.7 °F 30.2 in NE 6.3 mph 12.5 mph 70 % 0 in
18:36 43.9 °F 34.7 °F 30.2 in East 8.7 mph 13 mph 70 % 0 in
18:41 43.5 °F 34.5 °F 30.2 in East 11 mph 17.4 mph 70 % 0 in
18:46 43.5 °F 34.3 °F 30.2 in East 8.5 mph 17.4 mph 70 % 0 in
18:51 43.3 °F 34.2 °F 30.2 in ENE 6 mph 13.4 mph 70 % 0 in
18:56 43.2 °F 34.3 °F 30.2 in East 5.8 mph 13 mph 71 % 0 in
19:01 43 °F 34.2 °F 30.2 in NE 5.4 mph 12.8 mph 71 % 0 in
19:06 42.8 °F 34 °F 30.2 in East 7.4 mph 12.5 mph 71 % 0 in
19:11 42.6 °F 33.8 °F 30.2 in East 7.6 mph 12.5 mph 71 % 0 in
19:16 42.4 °F 34 °F 30.2 in East 10.1 mph 10.5 mph 72 % 0 in
19:21 42.3 °F 33.8 °F 30.2 in East 6.5 mph 11.2 mph 72 % 0 in
19:26 42.3 °F 34.2 °F 30.2 in ENE 5.4 mph 11.2 mph 73 % 0 in
19:31 42.1 °F 34 °F 30.2 in East 4.3 mph 10.3 mph 73 % 0 in
19:36 41.9 °F 34 °F 30.2 in East 7.6 mph 8.7 mph 73 % 0 in
19:41 41.7 °F 34 °F 30.2 in East 5.4 mph 8.7 mph 74 % 0 in
19:46 41.7 °F 34 °F 30.2 in NNE 5.8 mph 8.5 mph 74 % 0 in
19:51 41.5 °F 34 °F 30.2 in ENE 5.8 mph 11 mph 74 % 0 in
19:56 41.7 °F 34 °F 30.2 in East 10.1 mph 11 mph 74 % 0 in
20:01 41.7 °F 34 °F 30.2 in ESE 6.5 mph 10.1 mph 74 % 0 in
20:06 41.7 °F 34 °F 30.2 in ENE 6.3 mph 10.3 mph 74 % 0 in
20:11 41.7 °F 34 °F 30.2 in East 12.8 mph 12.8 mph 74 % 0 in
20:16 41.7 °F 34 °F 30.2 in ENE 6 mph 12.8 mph 74 % 0 in
20:21 41.7 °F 34 °F 30.2 in ESE 6.5 mph 12.8 mph 74 % 0 in
20:26 41.9 °F 34.2 °F 30.2 in East 8.5 mph 11.9 mph 74 % 0 in
20:31 41.9 °F 34 °F 30.2 in ENE 8.5 mph 12.3 mph 73 % 0 in
20:36 41.7 °F 33.6 °F 30.2 in East 8.5 mph 12.3 mph 73 % 0 in
20:41 41.7 °F 33.6 °F 30.2 in East 10.3 mph 12.3 mph 73 % 0 in
20:46 41.5 °F 33.4 °F 30.2 in East 5.4 mph 12.3 mph 73 % 0 in
20:51 41.4 °F 33.3 °F 30.2 in ESE 6.3 mph 10.5 mph 73 % 0 in
20:56 41.4 °F 33.3 °F 30.2 in East 7.4 mph 10.3 mph 73 % 0 in
21:02 41.4 °F 33.6 °F 30.2 in ENE 6 mph 10.5 mph 74 % 0 in
21:07 41.2 °F 33.4 °F 30.2 in East 12.1 mph 12.1 mph 74 % 0 in
21:12 41.2 °F 33.4 °F 30.2 in East 6.5 mph 12.1 mph 74 % 0 in
21:17 41 °F 33.1 °F 30.2 in East 10.3 mph 10.3 mph 73 % 0 in
21:22 41.2 °F 33.4 °F 30.2 in ESE 6 mph 10.7 mph 74 % 0 in
21:27 41 °F 33.1 °F 30.2 in SE 3.8 mph 10.7 mph 73 % 0 in
21:32 41 °F 33.3 °F 30.2 in East 3.6 mph 9.8 mph 74 % 0 in
21:37 40.8 °F 33.3 °F 30.2 in East 6.3 mph 9.8 mph 74 % 0 in
21:42 40.6 °F 33.1 °F 30.2 in ESE 2.2 mph 8.7 mph 74 % 0 in
21:47 40.6 °F 33.1 °F 30.2 in ESE 6.7 mph 10.1 mph 74 % 0 in
21:52 40.5 °F 32.7 °F 30.2 in ESE 5.8 mph 10.1 mph 74 % 0 in
21:57 40.5 °F 33.3 °F 30.2 in East 8.5 mph 8.7 mph 75 % 0 in
22:02 40.3 °F 32.7 °F 30.2 in ENE 5.6 mph 8.7 mph 74 % 0 in
22:07 40.3 °F 32.7 °F 30.2 in East 4.3 mph 8.5 mph 74 % 0 in
22:12 40.1 °F 32.7 °F 30.2 in ESE 4.3 mph 7.8 mph 75 % 0 in
22:17 39.9 °F 32.7 °F 30.2 in ENE 5.6 mph 7.8 mph 75 % 0 in
22:22 39.7 °F 32.5 °F 30.2 in ESE 4 mph 7.2 mph 75 % 0 in
22:27 39.6 °F 32.4 °F 30.2 in East 4.3 mph 7.2 mph 75 % 0 in
22:32 39.4 °F 32.2 °F 30.2 in East 2.5 mph 5.6 mph 75 % 0 in
22:37 39.2 °F 32 °F 30.2 in East 3.6 mph 6.5 mph 75 % 0 in
22:42 39 °F 31.8 °F 30.2 in NE 3.8 mph 6.5 mph 75 % 0 in
22:47 38.7 °F 31.8 °F 30.2 in East 1.6 mph 6 mph 76 % 0 in
22:52 38.5 °F 31.6 °F 30.2 in ENE 0.9 mph 6 mph 76 % 0 in
22:57 38.5 °F 31.5 °F 30.2 in East 5.4 mph 5.8 mph 76 % 0 in
23:02 37.9 °F 31.1 °F 30.2 in ENE 3.6 mph 5.8 mph 76 % 0 in
23:07 37.8 °F 31.3 °F 30.2 in ENE 4 mph 6.3 mph 77 % 0 in
23:12 37.8 °F 31.3 °F 30.2 in East 4.7 mph 6.3 mph 77 % 0 in
23:17 37.8 °F 31.6 °F 30.2 in NE 4.9 mph 6.3 mph 78 % 0 in
23:22 37.8 °F 31.6 °F 30.2 in East 4.7 mph 6.3 mph 78 % 0 in
23:27 37.8 °F 31.6 °F 30.2 in ESE 4.5 mph 6.3 mph 78 % 0 in
23:32 37.8 °F 31.6 °F 30.2 in East 4.9 mph 6.7 mph 78 % 0 in
23:37 37.8 °F 31.6 °F 30.2 in East 5.8 mph 6.7 mph 78 % 0 in
23:42 37.6 °F 31.5 °F 30.2 in ENE 4.3 mph 6.3 mph 78 % 0 in
23:47 37.6 °F 31.6 °F 30.2 in East 4 mph 7.2 mph 79 % 0 in
23:52 37.6 °F 31.6 °F 30.2 in East 5.8 mph 8.7 mph 79 % 0 in
23:57 37.6 °F 31.6 °F 30.2 in East 3.8 mph 8.7 mph 79 % 0 in
Le Gheer Warneton
Courtoisie de Weather Underground - 2.25 mb

Mise a jour : 18/12/2017 21:33:12
Généré par Cumulus 1.9.4 (1099)